sensor_id;sensor_type;location;lat;lon;timestamp;temperature;humidity
9448;DHT22;4762;48.128;11.376;2024-01-30T00:01:05;-3274.80;85.70
9448;DHT22;4762;48.128;11.376;2024-01-30T00:03:07;-3274.90;85.90
9448;DHT22;4762;48.128;11.376;2024-01-30T00:05:10;-3274.60;85.90
9448;DHT22;4762;48.128;11.376;2024-01-30T00:07:12;-3274.60;86.10
9448;DHT22;4762;48.128;11.376;2024-01-30T00:09:14;-3274.80;86.20
9448;DHT22;4762;48.128;11.376;2024-01-30T00:11:16;-3274.80;86.20
9448;DHT22;4762;48.128;11.376;2024-01-30T00:13:18;-3274.50;85.00
9448;DHT22;4762;48.128;11.376;2024-01-30T00:15:21;-3274.40;84.70
9448;DHT22;4762;48.128;11.376;2024-01-30T00:17:24;-3274.40;85.00
9448;DHT22;4762;48.128;11.376;2024-01-30T00:19:26;-3274.40;85.30
9448;DHT22;4762;48.128;11.376;2024-01-30T00:21:28;-3274.50;85.70
9448;DHT22;4762;48.128;11.376;2024-01-30T00:23:30;-3274.30;85.10
9448;DHT22;4762;48.128;11.376;2024-01-30T00:25:32;-3274.30;85.10
9448;DHT22;4762;48.128;11.376;2024-01-30T00:27:35;-3274.30;85.20
9448;DHT22;4762;48.128;11.376;2024-01-30T00:29:37;-3274.20;85.40
9448;DHT22;4762;48.128;11.376;2024-01-30T00:31:40;-3274.40;85.40
9448;DHT22;4762;48.128;11.376;2024-01-30T00:33:43;-3274.30;85.70
9448;DHT22;4762;48.128;11.376;2024-01-30T00:35:45;-3274.20;85.70
9448;DHT22;4762;48.128;11.376;2024-01-30T00:37:47;-3274.40;86.30
9448;DHT22;4762;48.128;11.376;2024-01-30T00:39:49;-3274.20;85.60
9448;DHT22;4762;48.128;11.376;2024-01-30T00:41:52;-3274.10;85.40
9448;DHT22;4762;48.128;11.376;2024-01-30T00:43:54;-3274.10;85.40
9448;DHT22;4762;48.128;11.376;2024-01-30T00:45:56;-3274.20;85.30
9448;DHT22;4762;48.128;11.376;2024-01-30T00:47:58;-3274.10;85.80
9448;DHT22;4762;48.128;11.376;2024-01-30T00:50:02;-3274.20;86.20
9448;DHT22;4762;48.128;11.376;2024-01-30T00:52:04;-3274.40;86.50
9448;DHT22;4762;48.128;11.376;2024-01-30T00:54:08;-3274.10;86.70
9448;DHT22;4762;48.128;11.376;2024-01-30T00:56:10;-3274.10;86.40
9448;DHT22;4762;48.128;11.376;2024-01-30T00:58:12;-3274.20;86.60
9448;DHT22;4762;48.128;11.376;2024-01-30T01:00:15;-3274.20;86.80
9448;DHT22;4762;48.128;11.376;2024-01-30T01:02:17;-3274.10;86.70
9448;DHT22;4762;48.128;11.376;2024-01-30T01:04:19;-3274.10;86.70
9448;DHT22;4762;48.128;11.376;2024-01-30T01:06:22;-3274.10;86.60
9448;DHT22;4762;48.128;11.376;2024-01-30T01:08:24;-3274.20;86.80
9448;DHT22;4762;48.128;11.376;2024-01-30T01:10:28;-3274.20;86.80
9448;DHT22;4762;48.128;11.376;2024-01-30T01:12:31;-3274.10;86.30
9448;DHT22;4762;48.128;11.376;2024-01-30T01:14:33;-3274.00;85.60
9448;DHT22;4762;48.128;11.376;2024-01-30T01:16:35;-3274.10;86.20
9448;DHT22;4762;48.128;11.376;2024-01-30T01:18:38;-3274.10;86.30
9448;DHT22;4762;48.128;11.376;2024-01-30T01:20:42;-3274.30;87.00
9448;DHT22;4762;48.128;11.376;2024-01-30T01:22:45;-3274.40;86.70
9448;DHT22;4762;48.128;11.376;2024-01-30T01:24:47;-3274.20;86.50
9448;DHT22;4762;48.128;11.376;2024-01-30T01:26:49;-3274.10;86.60
9448;DHT22;4762;48.128;11.376;2024-01-30T01:28:51;-3274.10;86.50
9448;DHT22;4762;48.128;11.376;2024-01-30T01:30:54;-3274.30;86.60
9448;DHT22;4762;48.128;11.376;2024-01-30T01:32:58;-3274.10;86.30
9448;DHT22;4762;48.128;11.376;2024-01-30T01:35:00;-3274.10;86.30
9448;DHT22;4762;48.128;11.376;2024-01-30T01:37:02;-3274.20;86.60
9448;DHT22;4762;48.128;11.376;2024-01-30T01:39:05;-3274.10;86.50
9448;DHT22;4762;48.128;11.376;2024-01-30T01:41:08;-3274.20;86.90
9448;DHT22;4762;48.128;11.376;2024-01-30T01:43:11;-3274.40;86.90
9448;DHT22;4762;48.128;11.376;2024-01-30T01:45:14;-3274.60;86.20
9448;DHT22;4762;48.128;11.376;2024-01-30T01:47:16;-3274.70;86.30
9448;DHT22;4762;48.128;11.376;2024-01-30T01:49:19;-3274.70;86.00
9448;DHT22;4762;48.128;11.376;2024-01-30T01:51:21;-3274.80;85.80
9448;DHT22;4762;48.128;11.376;2024-01-30T01:53:24;-3275.00;85.50
9448;DHT22;4762;48.128;11.376;2024-01-30T01:55:27;-3275.10;85.00
9448;DHT22;4762;48.128;11.376;2024-01-30T01:57:29;-3275.20;84.80
9448;DHT22;4762;48.128;11.376;2024-01-30T01:59:31;-3275.20;84.40
9448;DHT22;4762;48.128;11.376;2024-01-30T02:01:36;-3275.10;84.40
9448;DHT22;4762;48.128;11.376;2024-01-30T02:03:39;-3275.10;84.50
9448;DHT22;4762;48.128;11.376;2024-01-30T02:05:41;-3275.20;85.20
9448;DHT22;4762;48.128;11.376;2024-01-30T02:07:46;-3275.40;84.30
9448;DHT22;4762;48.128;11.376;2024-01-30T02:09:49;-3275.60;84.10
9448;DHT22;4762;48.128;11.376;2024-01-30T02:11:52;-3276.10;82.60
9448;DHT22;4762;48.128;11.376;2024-01-30T02:13:54;-3276.10;82.20
9448;DHT22;4762;48.128;11.376;2024-01-30T02:15:56;-3276.10;82.00
9448;DHT22;4762;48.128;11.376;2024-01-30T02:17:59;-3275.90;82.30
9448;DHT22;4762;48.128;11.376;2024-01-30T02:20:01;-3275.90;82.30
9448;DHT22;4762;48.128;11.376;2024-01-30T02:22:04;-3275.80;82.60
9448;DHT22;4762;48.128;11.376;2024-01-30T02:24:06;-3275.50;82.90
9448;DHT22;4762;48.128;11.376;2024-01-30T02:26:09;-3275.60;83.00
9448;DHT22;4762;48.128;11.376;2024-01-30T02:28:12;-3275.70;83.30
9448;DHT22;4762;48.128;11.376;2024-01-30T02:30:14;-3275.70;83.10
9448;DHT22;4762;48.128;11.376;2024-01-30T02:32:17;-3275.70;83.30
9448;DHT22;4762;48.128;11.376;2024-01-30T02:34:19;-3275.50;83.10
9448;DHT22;4762;48.128;11.376;2024-01-30T02:36:22;-3275.40;83.60
9448;DHT22;4762;48.128;11.376;2024-01-30T02:38:24;-3275.50;82.90
9448;DHT22;4762;48.128;11.376;2024-01-30T02:40:28;-3275.60;83.40
9448;DHT22;4762;48.128;11.376;2024-01-30T02:42:30;-3275.80;83.00
9448;DHT22;4762;48.128;11.376;2024-01-30T02:44:34;-3275.50;82.90
9448;DHT22;4762;48.128;11.376;2024-01-30T02:46:36;-3275.40;83.00
9448;DHT22;4762;48.128;11.376;2024-01-30T02:48:39;-3275.30;83.30
9448;DHT22;4762;48.128;11.376;2024-01-30T02:50:41;-3275.40;83.50
9448;DHT22;4762;48.128;11.376;2024-01-30T02:52:45;-3275.40;82.90
9448;DHT22;4762;48.128;11.376;2024-01-30T02:54:47;-3275.60;82.90
9448;DHT22;4762;48.128;11.376;2024-01-30T02:56:49;-3275.70;82.90
9448;DHT22;4762;48.128;11.376;2024-01-30T02:58:52;-3275.60;82.90
9448;DHT22;4762;48.128;11.376;2024-01-30T03:00:54;-3275.60;83.00
9448;DHT22;4762;48.128;11.376;2024-01-30T03:02:56;-3275.80;83.10
9448;DHT22;4762;48.128;11.376;2024-01-30T03:04:59;-3275.80;82.70
9448;DHT22;4762;48.128;11.376;2024-01-30T03:07:00;-3275.80;82.80
9448;DHT22;4762;48.128;11.376;2024-01-30T03:09:03;-3275.50;82.80
9448;DHT22;4762;48.128;11.376;2024-01-30T03:11:05;-3275.70;83.00
9448;DHT22;4762;48.128;11.376;2024-01-30T03:13:08;-3275.80;82.60
9448;DHT22;4762;48.128;11.376;2024-01-30T03:15:11;-3275.50;83.00
9448;DHT22;4762;48.128;11.376;2024-01-30T03:17:13;-3275.70;82.90
9448;DHT22;4762;48.128;11.376;2024-01-30T03:19:15;-3275.80;83.00
9448;DHT22;4762;48.128;11.376;2024-01-30T03:21:18;-3275.50;82.90
9448;DHT22;4762;48.128;11.376;2024-01-30T03:23:20;-3275.40;82.90
9448;DHT22;4762;48.128;11.376;2024-01-30T03:25:22;-3275.10;83.50
9448;DHT22;4762;48.128;11.376;2024-01-30T03:27:24;-3275.10;83.50
9448;DHT22;4762;48.128;11.376;2024-01-30T03:29:27;-3275.00;84.10
9448;DHT22;4762;48.128;11.376;2024-01-30T03:31:29;-3275.10;83.80
9448;DHT22;4762;48.128;11.376;2024-01-30T03:33:31;-3275.10;84.00
9448;DHT22;4762;48.128;11.376;2024-01-30T03:35:33;-3275.00;84.00
9448;DHT22;4762;48.128;11.376;2024-01-30T03:37:35;-3274.90;84.40
9448;DHT22;4762;48.128;11.376;2024-01-30T03:39:38;-3274.80;84.40
9448;DHT22;4762;48.128;11.376;2024-01-30T03:41:42;-3275.00;84.40
9448;DHT22;4762;48.128;11.376;2024-01-30T03:43:42;-3274.80;84.60
9448;DHT22;4762;48.128;11.376;2024-01-30T03:45:44;-3275.00;84.80
9448;DHT22;4762;48.128;11.376;2024-01-30T03:47:46;-3274.90;84.60
9448;DHT22;4762;48.128;11.376;2024-01-30T03:49:49;-3274.90;84.70
9448;DHT22;4762;48.128;11.376;2024-01-30T03:51:51;-3274.90;84.90
9448;DHT22;4762;48.128;11.376;2024-01-30T03:53:53;-3274.90;85.10
9448;DHT22;4762;48.128;11.376;2024-01-30T03:55:55;-3274.90;85.10
9448;DHT22;4762;48.128;11.376;2024-01-30T03:57:58;-3275.00;84.80
9448;DHT22;4762;48.128;11.376;2024-01-30T04:00:00;-3275.00;84.70
9448;DHT22;4762;48.128;11.376;2024-01-30T04:02:02;-3275.00;84.50
9448;DHT22;4762;48.128;11.376;2024-01-30T04:04:04;-3275.00;84.60
9448;DHT22;4762;48.128;11.376;2024-01-30T04:06:07;-3275.00;85.00
9448;DHT22;4762;48.128;11.376;2024-01-30T04:08:09;-3275.10;85.10
9448;DHT22;4762;48.128;11.376;2024-01-30T04:10:11;-3275.20;85.20
9448;DHT22;4762;48.128;11.376;2024-01-30T04:12:13;-3275.00;84.50
9448;DHT22;4762;48.128;11.376;2024-01-30T04:14:15;-3275.10;85.90
9448;DHT22;4762;48.128;11.376;2024-01-30T04:16:20;-3275.30;84.90
9448;DHT22;4762;48.128;11.376;2024-01-30T04:18:22;-3275.40;84.70
9448;DHT22;4762;48.128;11.376;2024-01-30T04:20:24;-3275.30;84.50
9448;DHT22;4762;48.128;11.376;2024-01-30T04:22:26;-3275.10;84.30
9448;DHT22;4762;48.128;11.376;2024-01-30T04:24:28;-3275.20;84.30
9448;DHT22;4762;48.128;11.376;2024-01-30T04:26:31;-3275.20;84.80
9448;DHT22;4762;48.128;11.376;2024-01-30T04:28:33;-3275.10;84.80
9448;DHT22;4762;48.128;11.376;2024-01-30T04:30:35;-3275.20;85.00
9448;DHT22;4762;48.128;11.376;2024-01-30T04:32:37;-3275.30;84.70
9448;DHT22;4762;48.128;11.376;2024-01-30T04:34:39;-3275.20;84.50
9448;DHT22;4762;48.128;11.376;2024-01-30T04:36:44;-3275.30;84.30
9448;DHT22;4762;48.128;11.376;2024-01-30T04:38:44;-3275.10;84.40
9448;DHT22;4762;48.128;11.376;2024-01-30T04:40:46;-3275.20;84.40
9448;DHT22;4762;48.128;11.376;2024-01-30T04:42:48;-3275.30;84.70
9448;DHT22;4762;48.128;11.376;2024-01-30T04:44:51;-3275.20;84.30
9448;DHT22;4762;48.128;11.376;2024-01-30T04:46:53;-3275.30;84.10
9448;DHT22;4762;48.128;11.376;2024-01-30T04:48:55;-3275.30;84.30
9448;DHT22;4762;48.128;11.376;2024-01-30T04:50:57;-3275.20;84.40
9448;DHT22;4762;48.128;11.376;2024-01-30T04:52:59;-3275.40;84.00
9448;DHT22;4762;48.128;11.376;2024-01-30T04:55:02;-3275.30;84.00
9448;DHT22;4762;48.128;11.376;2024-01-30T04:57:05;-3275.30;84.00
9448;DHT22;4762;48.128;11.376;2024-01-30T04:59:07;-3275.30;83.90
9448;DHT22;4762;48.128;11.376;2024-01-30T05:01:09;-3275.40;83.70
9448;DHT22;4762;48.128;11.376;2024-01-30T05:03:11;-3275.30;83.60
9448;DHT22;4762;48.128;11.376;2024-01-30T05:05:14;-3275.30;83.70
9448;DHT22;4762;48.128;11.376;2024-01-30T05:07:17;-3275.10;83.90
9448;DHT22;4762;48.128;11.376;2024-01-30T05:09:19;-3275.00;83.80
9448;DHT22;4762;48.128;11.376;2024-01-30T05:11:21;-3274.90;84.50
9448;DHT22;4762;48.128;11.376;2024-01-30T05:13:23;-3274.80;84.50
9448;DHT22;4762;48.128;11.376;2024-01-30T05:15:25;-3274.70;84.40
9448;DHT22;4762;48.128;11.376;2024-01-30T05:17:28;-3274.60;85.00
9448;DHT22;4762;48.128;11.376;2024-01-30T05:19:30;-3274.30;84.60
9448;DHT22;4762;48.128;11.376;2024-01-30T05:21:32;-3274.30;84.50
9448;DHT22;4762;48.128;11.376;2024-01-30T05:23:34;-3274.10;84.90
9448;DHT22;4762;48.128;11.376;2024-01-30T05:25:36;-3274.00;85.30
9448;DHT22;4762;48.128;11.376;2024-01-30T05:27:39;-3274.10;86.00
9448;DHT22;4762;48.128;11.376;2024-01-30T05:29:41;-3274.40;86.50
9448;DHT22;4762;48.128;11.376;2024-01-30T05:31:43;-3274.50;85.30
9448;DHT22;4762;48.128;11.376;2024-01-30T05:33:45;-3274.60;84.90
9448;DHT22;4762;48.128;11.376;2024-01-30T05:35:48;-3275.10;84.40
9448;DHT22;4762;48.128;11.376;2024-01-30T05:37:50;-3274.80;83.60
9448;DHT22;4762;48.128;11.376;2024-01-30T05:39:52;-3274.80;83.80
9448;DHT22;4762;48.128;11.376;2024-01-30T05:41:54;-3274.40;84.10
9448;DHT22;4762;48.128;11.376;2024-01-30T05:43:56;-3274.20;83.80
9448;DHT22;4762;48.128;11.376;2024-01-30T05:45:59;-3274.10;85.10
9448;DHT22;4762;48.128;11.376;2024-01-30T05:48:01;-3274.10;85.20
9448;DHT22;4762;48.128;11.376;2024-01-30T05:50:04;-3274.20;85.80
9448;DHT22;4762;48.128;11.376;2024-01-30T05:52:06;-3274.50;85.50
9448;DHT22;4762;48.128;11.376;2024-01-30T05:54:08;-3274.60;84.80
9448;DHT22;4762;48.128;11.376;2024-01-30T05:56:11;-3274.40;84.50
9448;DHT22;4762;48.128;11.376;2024-01-30T05:58:14;-3274.20;84.20
9448;DHT22;4762;48.128;11.376;2024-01-30T06:00:16;-3274.30;85.30
9448;DHT22;4762;48.128;11.376;2024-01-30T06:02:19;-3274.20;85.40
9448;DHT22;4762;48.128;11.376;2024-01-30T06:04:21;-3274.20;85.40
9448;DHT22;4762;48.128;11.376;2024-01-30T06:06:23;-3274.00;84.80
9448;DHT22;4762;48.128;11.376;2024-01-30T06:08:25;-3274.00;84.80
9448;DHT22;4762;48.128;11.376;2024-01-30T06:10:28;-3274.00;85.20
9448;DHT22;4762;48.128;11.376;2024-01-30T06:12:30;-3274.00;85.60
9448;DHT22;4762;48.128;11.376;2024-01-30T06:14:32;-3274.20;86.60
9448;DHT22;4762;48.128;11.376;2024-01-30T06:16:35;-3274.40;86.10
9448;DHT22;4762;48.128;11.376;2024-01-30T06:18:37;-3274.60;85.50
9448;DHT22;4762;48.128;11.376;2024-01-30T06:20:39;-3274.60;84.90
9448;DHT22;4762;48.128;11.376;2024-01-30T06:22:41;-3274.50;84.90
9448;DHT22;4762;48.128;11.376;2024-01-30T06:24:43;-3274.60;84.80
9448;DHT22;4762;48.128;11.376;2024-01-30T06:26:47;-3274.60;84.90
9448;DHT22;4762;48.128;11.376;2024-01-30T06:28:49;-3274.50;84.40
9448;DHT22;4762;48.128;11.376;2024-01-30T06:30:51;-3274.60;84.40
9448;DHT22;4762;48.128;11.376;2024-01-30T06:32:53;-3274.70;84.80
9448;DHT22;4762;48.128;11.376;2024-01-30T06:34:55;-3274.70;84.30
9448;DHT22;4762;48.128;11.376;2024-01-30T06:36:58;-3274.60;84.10
9448;DHT22;4762;48.128;11.376;2024-01-30T06:39:00;-3274.60;84.40
9448;DHT22;4762;48.128;11.376;2024-01-30T06:41:02;-3274.70;84.80
9448;DHT22;4762;48.128;11.376;2024-01-30T06:43:04;-3274.50;84.90
9448;DHT22;4762;48.128;11.376;2024-01-30T06:45:07;-3274.30;85.10
9448;DHT22;4762;48.128;11.376;2024-01-30T06:47:10;-3274.50;85.30
9448;DHT22;4762;48.128;11.376;2024-01-30T06:49:12;-3274.80;84.60
9448;DHT22;4762;48.128;11.376;2024-01-30T06:51:14;-3274.80;84.30
9448;DHT22;4762;48.128;11.376;2024-01-30T06:53:16;-3274.90;83.90
9448;DHT22;4762;48.128;11.376;2024-01-30T06:55:19;-3275.10;83.60
9448;DHT22;4762;48.128;11.376;2024-01-30T06:57:21;-3275.00;83.30
9448;DHT22;4762;48.128;11.376;2024-01-30T06:59:23;-3275.00;83.90
9448;DHT22;4762;48.128;11.376;2024-01-30T07:01:28;-3274.80;83.60
9448;DHT22;4762;48.128;11.376;2024-01-30T07:03:30;-3274.80;84.00
9448;DHT22;4762;48.128;11.376;2024-01-30T07:05:32;-3274.80;84.00
9448;DHT22;4762;48.128;11.376;2024-01-30T07:07:34;-3274.60;83.90
9448;DHT22;4762;48.128;11.376;2024-01-30T07:09:37;-3274.60;84.50
9448;DHT22;4762;48.128;11.376;2024-01-30T07:11:39;-3274.80;84.50
9448;DHT22;4762;48.128;11.376;2024-01-30T07:13:41;-3274.90;84.30
9448;DHT22;4762;48.128;11.376;2024-01-30T07:15:43;-3274.80;84.30
9448;DHT22;4762;48.128;11.376;2024-01-30T07:17:46;-3274.70;84.40
9448;DHT22;4762;48.128;11.376;2024-01-30T07:19:48;-3274.80;84.20
9448;DHT22;4762;48.128;11.376;2024-01-30T07:21:50;-3274.90;84.40
9448;DHT22;4762;48.128;11.376;2024-01-30T07:23:52;-3274.60;84.70
9448;DHT22;4762;48.128;11.376;2024-01-30T07:25:54;-3274.80;84.80
9448;DHT22;4762;48.128;11.376;2024-01-30T07:27:57;-3274.70;84.90
9448;DHT22;4762;48.128;11.376;2024-01-30T07:29:59;-3274.70;84.90
9448;DHT22;4762;48.128;11.376;2024-01-30T07:32:01;-3274.90;84.70
9448;DHT22;4762;48.128;11.376;2024-01-30T07:34:03;-3274.80;84.60
9448;DHT22;4762;48.128;11.376;2024-01-30T07:36:06;-3275.00;84.90
9448;DHT22;4762;48.128;11.376;2024-01-30T07:38:08;-3275.00;84.60
9448;DHT22;4762;48.128;11.376;2024-01-30T07:40:10;-3275.00;84.60
9448;DHT22;4762;48.128;11.376;2024-01-30T07:42:12;-3274.90;84.80
9448;DHT22;4762;48.128;11.376;2024-01-30T07:44:15;-3275.10;84.90
9448;DHT22;4762;48.128;11.376;2024-01-30T07:46:17;-3275.20;84.80
9448;DHT22;4762;48.128;11.376;2024-01-30T07:48:19;-3275.00;84.60
9448;DHT22;4762;48.128;11.376;2024-01-30T07:50:22;-3275.00;84.70
9448;DHT22;4762;48.128;11.376;2024-01-30T07:52:25;-3275.10;84.70
9448;DHT22;4762;48.128;11.376;2024-01-30T07:54:27;-3275.30;84.90
9448;DHT22;4762;48.128;11.376;2024-01-30T07:56:29;-3275.30;84.80
9448;DHT22;4762;48.128;11.376;2024-01-30T07:58:31;-3275.40;84.40
9448;DHT22;4762;48.128;11.376;2024-01-30T08:00:33;-3275.30;84.90
9448;DHT22;4762;48.128;11.376;2024-01-30T08:02:36;-3275.40;84.70
9448;DHT22;4762;48.128;11.376;2024-01-30T08:04:39;-3275.30;84.60
9448;DHT22;4762;48.128;11.376;2024-01-30T08:06:41;-3275.30;84.80
9448;DHT22;4762;48.128;11.376;2024-01-30T08:08:43;-3275.80;85.00
9448;DHT22;4762;48.128;11.376;2024-01-30T08:10:45;-3275.90;85.10
9448;DHT22;4762;48.128;11.376;2024-01-30T08:12:48;-3276.20;84.20
9448;DHT22;4762;48.128;11.376;2024-01-30T08:14:50;-3276.40;83.30
9448;DHT22;4762;48.128;11.376;2024-01-30T08:16:52;-3276.40;82.80
9448;DHT22;4762;48.128;11.376;2024-01-30T08:18:54;-3276.50;82.80
9448;DHT22;4762;48.128;11.376;2024-01-30T08:20:56;-3276.70;82.70
9448;DHT22;4762;48.128;11.376;2024-01-30T08:22:59;-3276.50;82.50
9448;DHT22;4762;48.128;11.376;2024-01-30T08:25:01;-3276.70;82.20
9448;DHT22;4762;48.128;11.376;2024-01-30T08:27:03;0.00;82.30
9448;DHT22;4762;48.128;11.376;2024-01-30T08:29:05;0.00;82.30
9448;DHT22;4762;48.128;11.376;2024-01-30T08:31:10;0.00;82.30
9448;DHT22;4762;48.128;11.376;2024-01-30T08:33:10;0.00;81.90
9448;DHT22;4762;48.128;11.376;2024-01-30T08:35:13;0.40;83.00
9448;DHT22;4762;48.128;11.376;2024-01-30T08:37:15;0.70;83.00
9448;DHT22;4762;48.128;11.376;2024-01-30T08:39:17;0.80;83.70
9448;DHT22;4762;48.128;11.376;2024-01-30T08:41:19;1.00;82.00
9448;DHT22;4762;48.128;11.376;2024-01-30T08:43:21;0.80;82.40
9448;DHT22;4762;48.128;11.376;2024-01-30T08:45:24;1.00;81.80
9448;DHT22;4762;48.128;11.376;2024-01-30T08:47:26;1.00;82.20
9448;DHT22;4762;48.128;11.376;2024-01-30T08:49:28;1.40;80.60
9448;DHT22;4762;48.128;11.376;2024-01-30T08:51:30;1.20;81.10
9448;DHT22;4762;48.128;11.376;2024-01-30T08:53:33;1.30;79.70
9448;DHT22;4762;48.128;11.376;2024-01-30T08:55:35;1.50;80.20
9448;DHT22;4762;48.128;11.376;2024-01-30T08:57:37;1.50;80.70
9448;DHT22;4762;48.128;11.376;2024-01-30T08:59:39;1.30;81.00
9448;DHT22;4762;48.128;11.376;2024-01-30T09:01:41;1.70;80.80
9448;DHT22;4762;48.128;11.376;2024-01-30T09:03:44;1.70;80.00
9448;DHT22;4762;48.128;11.376;2024-01-30T09:05:46;2.00;79.50
9448;DHT22;4762;48.128;11.376;2024-01-30T09:07:48;2.00;77.70
9448;DHT22;4762;48.128;11.376;2024-01-30T09:09:50;2.60;75.80
9448;DHT22;4762;48.128;11.376;2024-01-30T09:11:52;2.60;75.40
9448;DHT22;4762;48.128;11.376;2024-01-30T09:13:55;2.60;74.40
9448;DHT22;4762;48.128;11.376;2024-01-30T09:15:57;2.80;74.70
9448;DHT22;4762;48.128;11.376;2024-01-30T09:17:59;2.90;74.20
9448;DHT22;4762;48.128;11.376;2024-01-30T09:20:01;2.90;75.50
9448;DHT22;4762;48.128;11.376;2024-01-30T09:22:04;3.00;73.70
9448;DHT22;4762;48.128;11.376;2024-01-30T09:24:07;3.00;72.80
9448;DHT22;4762;48.128;11.376;2024-01-30T09:26:09;3.30;76.50
9448;DHT22;4762;48.128;11.376;2024-01-30T09:28:11;3.10;74.10
9448;DHT22;4762;48.128;11.376;2024-01-30T09:30:14;3.40;73.20
9448;DHT22;4762;48.128;11.376;2024-01-30T09:32:16;3.90;73.40
9448;DHT22;4762;48.128;11.376;2024-01-30T09:34:19;4.20;70.50
9448;DHT22;4762;48.128;11.376;2024-01-30T09:36:21;4.50;68.20
9448;DHT22;4762;48.128;11.376;2024-01-30T09:38:23;4.80;72.40
9448;DHT22;4762;48.128;11.376;2024-01-30T09:40:26;5.00;72.70
9448;DHT22;4762;48.128;11.376;2024-01-30T09:42:31;5.60;68.40
9448;DHT22;4762;48.128;11.376;2024-01-30T09:44:31;6.40;73.20
9448;DHT22;4762;48.128;11.376;2024-01-30T09:46:33;6.90;68.20
9448;DHT22;4762;48.128;11.376;2024-01-30T09:48:35;7.20;70.30
9448;DHT22;4762;48.128;11.376;2024-01-30T09:50:37;7.60;72.80
9448;DHT22;4762;48.128;11.376;2024-01-30T09:52:40;7.70;71.10
9448;DHT22;4762;48.128;11.376;2024-01-30T09:54:42;8.20;69.50
9448;DHT22;4762;48.128;11.376;2024-01-30T09:56:44;8.40;69.10
9448;DHT22;4762;48.128;11.376;2024-01-30T09:58:46;8.80;68.50
9448;DHT22;4762;48.128;11.376;2024-01-30T10:00:48;9.10;63.70
9448;DHT22;4762;48.128;11.376;2024-01-30T10:02:50;9.00;66.10
9448;DHT22;4762;48.128;11.376;2024-01-30T10:04:53;9.30;65.30
9448;DHT22;4762;48.128;11.376;2024-01-30T10:06:55;9.50;64.50
9448;DHT22;4762;48.128;11.376;2024-01-30T10:08:57;9.60;53.80
9448;DHT22;4762;48.128;11.376;2024-01-30T10:11:00;9.70;54.90
9448;DHT22;4762;48.128;11.376;2024-01-30T10:13:02;9.80;58.20
9448;DHT22;4762;48.128;11.376;2024-01-30T10:15:06;10.00;57.50
9448;DHT22;4762;48.128;11.376;2024-01-30T10:17:09;10.40;55.70
9448;DHT22;4762;48.128;11.376;2024-01-30T10:19:11;10.60;55.10
9448;DHT22;4762;48.128;11.376;2024-01-30T10:21:13;10.80;52.80
9448;DHT22;4762;48.128;11.376;2024-01-30T10:23:16;10.90;50.20
9448;DHT22;4762;48.128;11.376;2024-01-30T10:25:18;11.30;51.20
9448;DHT22;4762;48.128;11.376;2024-01-30T10:27:26;11.60;47.70
9448;DHT22;4762;48.128;11.376;2024-01-30T10:29:27;11.50;49.60
9448;DHT22;4762;48.128;11.376;2024-01-30T10:31:30;11.50;49.30
9448;DHT22;4762;48.128;11.376;2024-01-30T10:33:32;11.90;48.20
9448;DHT22;4762;48.128;11.376;2024-01-30T10:35:34;12.30;49.00
9448;DHT22;4762;48.128;11.376;2024-01-30T10:37:36;12.90;45.90
9448;DHT22;4762;48.128;11.376;2024-01-30T10:39:39;13.00;44.90
9448;DHT22;4762;48.128;11.376;2024-01-30T10:41:43;13.60;45.00
9448;DHT22;4762;48.128;11.376;2024-01-30T10:43:47;13.90;42.50
9448;DHT22;4762;48.128;11.376;2024-01-30T10:45:48;14.10;41.60
9448;DHT22;4762;48.128;11.376;2024-01-30T10:47:50;13.90;40.80
9448;DHT22;4762;48.128;11.376;2024-01-30T10:49:52;14.00;40.90
9448;DHT22;4762;48.128;11.376;2024-01-30T10:51:54;14.40;40.60
9448;DHT22;4762;48.128;11.376;2024-01-30T10:53:57;14.80;39.00
9448;DHT22;4762;48.128;11.376;2024-01-30T10:56:01;14.60;36.10
9448;DHT22;4762;48.128;11.376;2024-01-30T10:58:03;14.20;36.60
9448;DHT22;4762;48.128;11.376;2024-01-30T11:00:14;14.70;38.40
9448;DHT22;4762;48.128;11.376;2024-01-30T11:02:16;14.30;35.40
9448;DHT22;4762;48.128;11.376;2024-01-30T11:04:18;14.10;35.80
9448;DHT22;4762;48.128;11.376;2024-01-30T11:06:31;13.80;37.10
9448;DHT22;4762;48.128;11.376;2024-01-30T11:08:34;13.30;36.60
9448;DHT22;4762;48.128;11.376;2024-01-30T11:10:44;13.00;39.40
9448;DHT22;4762;48.128;11.376;2024-01-30T11:12:40;13.10;37.50
9448;DHT22;4762;48.128;11.376;2024-01-30T11:14:42;13.10;37.90
9448;DHT22;4762;48.128;11.376;2024-01-30T11:16:45;13.10;38.00
9448;DHT22;4762;48.128;11.376;2024-01-30T11:18:50;13.30;37.80
9448;DHT22;4762;48.128;11.376;2024-01-30T11:20:57;13.20;38.90
9448;DHT22;4762;48.128;11.376;2024-01-30T11:23:01;13.80;36.70
9448;DHT22;4762;48.128;11.376;2024-01-30T11:25:03;14.20;36.10
9448;DHT22;4762;48.128;11.376;2024-01-30T11:27:07;14.60;36.30
9448;DHT22;4762;48.128;11.376;2024-01-30T11:29:07;15.30;36.00
9448;DHT22;4762;48.128;11.376;2024-01-30T11:31:09;15.40;35.00
9448;DHT22;4762;48.128;11.376;2024-01-30T11:33:12;14.90;34.70
9448;DHT22;4762;48.128;11.376;2024-01-30T11:35:15;14.80;35.60
9448;DHT22;4762;48.128;11.376;2024-01-30T11:37:17;14.80;36.00
9448;DHT22;4762;48.128;11.376;2024-01-30T11:39:20;15.10;34.70
9448;DHT22;4762;48.128;11.376;2024-01-30T11:41:22;15.40;35.20
9448;DHT22;4762;48.128;11.376;2024-01-30T11:43:25;15.80;33.70
9448;DHT22;4762;48.128;11.376;2024-01-30T11:45:28;15.50;34.50
9448;DHT22;4762;48.128;11.376;2024-01-30T11:47:30;15.30;34.20
9448;DHT22;4762;48.128;11.376;2024-01-30T11:49:32;15.30;34.80
9448;DHT22;4762;48.128;11.376;2024-01-30T11:51:34;15.20;34.40
9448;DHT22;4762;48.128;11.376;2024-01-30T11:53:36;15.30;36.50
9448;DHT22;4762;48.128;11.376;2024-01-30T11:55:38;15.40;34.30
9448;DHT22;4762;48.128;11.376;2024-01-30T11:57:41;15.40;33.90
9448;DHT22;4762;48.128;11.376;2024-01-30T11:59:43;15.20;34.20
9448;DHT22;4762;48.128;11.376;2024-01-30T12:01:46;14.90;34.50
9448;DHT22;4762;48.128;11.376;2024-01-30T12:03:49;15.10;33.50
9448;DHT22;4762;48.128;11.376;2024-01-30T12:05:55;15.30;36.70
9448;DHT22;4762;48.128;11.376;2024-01-30T12:07:57;16.00;32.80
9448;DHT22;4762;48.128;11.376;2024-01-30T12:10:01;16.00;33.30
9448;DHT22;4762;48.128;11.376;2024-01-30T12:12:03;16.20;31.40
9448;DHT22;4762;48.128;11.376;2024-01-30T12:14:05;16.40;31.00
9448;DHT22;4762;48.128;11.376;2024-01-30T12:16:08;16.90;31.60
9448;DHT22;4762;48.128;11.376;2024-01-30T12:18:10;16.90;30.00
9448;DHT22;4762;48.128;11.376;2024-01-30T12:20:13;16.20;29.80
9448;DHT22;4762;48.128;11.376;2024-01-30T12:22:15;15.50;30.50
9448;DHT22;4762;48.128;11.376;2024-01-30T12:24:18;15.50;31.40
9448;DHT22;4762;48.128;11.376;2024-01-30T12:26:20;15.20;31.40
9448;DHT22;4762;48.128;11.376;2024-01-30T12:28:25;15.30;32.90
9448;DHT22;4762;48.128;11.376;2024-01-30T12:30:28;15.50;31.20
9448;DHT22;4762;48.128;11.376;2024-01-30T12:32:34;15.60;31.70
9448;DHT22;4762;48.128;11.376;2024-01-30T12:34:39;15.40;31.50
9448;DHT22;4762;48.128;11.376;2024-01-30T12:36:37;15.40;31.50
9448;DHT22;4762;48.128;11.376;2024-01-30T12:38:40;15.10;33.40
9448;DHT22;4762;48.128;11.376;2024-01-30T12:40:43;15.00;32.00
9448;DHT22;4762;48.128;11.376;2024-01-30T12:42:46;15.00;33.00